sensor_id;sensor_type;location;lat;lon;timestamp;P1;durP1;ratioP1;P2;durP2;ratioP2
20462;SDS011;10390;53.566;9.980;2023-07-31T00:00:13;6.70;;;4.93;;
20462;SDS011;10390;53.566;9.980;2023-07-31T00:02:38;6.32;;;5.22;;
20462;SDS011;10390;53.566;9.980;2023-07-31T00:05:04;6.05;;;5.22;;
20462;SDS011;10390;53.566;9.980;2023-07-31T00:07:30;6.10;;;5.05;;
20462;SDS011;10390;53.566;9.980;2023-07-31T00:09:57;5.55;;;4.95;;
20462;SDS011;10390;53.566;9.980;2023-07-31T00:12:23;5.90;;;5.10;;
20462;SDS011;10390;53.566;9.980;2023-07-31T00:14:48;6.00;;;5.10;;
20462;SDS011;10390;53.566;9.980;2023-07-31T00:17:14;5.90;;;4.97;;
20462;SDS011;10390;53.566;9.980;2023-07-31T00:19:41;6.55;;;5.57;;
20462;SDS011;10390;53.566;9.980;2023-07-31T00:22:07;6.95;;;5.60;;
20462;SDS011;10390;53.566;9.980;2023-07-31T00:24:32;8.18;;;6.10;;
20462;SDS011;10390;53.566;9.980;2023-07-31T00:26:58;7.32;;;6.45;;
20462;SDS011;10390;53.566;9.980;2023-07-31T00:29:23;7.68;;;6.38;;
20462;SDS011;10390;53.566;9.980;2023-07-31T00:31:49;7.65;;;6.20;;
20462;SDS011;10390;53.566;9.980;2023-07-31T00:34:15;7.00;;;5.93;;
20462;SDS011;10390;53.566;9.980;2023-07-31T00:36:40;7.90;;;7.10;;
20462;SDS011;10390;53.566;9.980;2023-07-31T00:39:06;7.00;;;6.30;;
20462;SDS011;10390;53.566;9.980;2023-07-31T00:41:31;7.22;;;6.32;;
20462;SDS011;10390;53.566;9.980;2023-07-31T00:43:57;8.45;;;6.30;;
20462;SDS011;10390;53.566;9.980;2023-07-31T00:46:22;7.93;;;6.35;;
20462;SDS011;10390;53.566;9.980;2023-07-31T00:48:48;7.35;;;6.38;;
20462;SDS011;10390;53.566;9.980;2023-07-31T00:51:14;7.45;;;6.45;;
20462;SDS011;10390;53.566;9.980;2023-07-31T00:53:41;7.40;;;5.95;;
20462;SDS011;10390;53.566;9.980;2023-07-31T00:56:07;7.40;;;6.32;;
20462;SDS011;10390;53.566;9.980;2023-07-31T00:58:33;7.90;;;6.00;;
20462;SDS011;10390;53.566;9.980;2023-07-31T01:00:59;7.07;;;5.90;;
20462;SDS011;10390;53.566;9.980;2023-07-31T01:03:25;6.85;;;5.70;;
20462;SDS011;10390;53.566;9.980;2023-07-31T01:11:13;7.38;;;5.72;;
20462;SDS011;10390;53.566;9.980;2023-07-31T01:13:42;7.60;;;6.03;;
20462;SDS011;10390;53.566;9.980;2023-07-31T01:16:09;7.50;;;6.18;;
20462;SDS011;10390;53.566;9.980;2023-07-31T01:18:34;6.50;;;5.55;;
20462;SDS011;10390;53.566;9.980;2023-07-31T01:21:04;8.10;;;5.70;;
20462;SDS011;10390;53.566;9.980;2023-07-31T01:26:52;6.32;;;5.45;;
20462;SDS011;10390;53.566;9.980;2023-07-31T01:32:03;6.65;;;5.72;;
20462;SDS011;10390;53.566;9.980;2023-07-31T01:34:31;6.43;;;5.55;;
20462;SDS011;10390;53.566;9.980;2023-07-31T01:36:58;7.25;;;5.22;;
20462;SDS011;10390;53.566;9.980;2023-07-31T01:39:24;7.25;;;5.60;;
20462;SDS011;10390;53.566;9.980;2023-07-31T01:41:49;6.78;;;5.50;;
20462;SDS011;10390;53.566;9.980;2023-07-31T01:44:16;6.38;;;5.60;;
20462;SDS011;10390;53.566;9.980;2023-07-31T01:46:41;6.60;;;5.88;;
20462;SDS011;10390;53.566;9.980;2023-07-31T01:49:07;6.50;;;5.70;;
20462;SDS011;10390;53.566;9.980;2023-07-31T01:51:32;7.97;;;5.28;;
20462;SDS011;10390;53.566;9.980;2023-07-31T01:53:59;7.07;;;5.90;;
20462;SDS011;10390;53.566;9.980;2023-07-31T01:56:25;7.03;;;5.60;;
20462;SDS011;10390;53.566;9.980;2023-07-31T01:58:51;7.93;;;6.07;;
20462;SDS011;10390;53.566;9.980;2023-07-31T02:01:16;6.35;;;5.70;;
20462;SDS011;10390;53.566;9.980;2023-07-31T02:03:42;6.55;;;5.30;;
20462;SDS011;10390;53.566;9.980;2023-07-31T02:06:08;6.60;;;5.85;;
20462;SDS011;10390;53.566;9.980;2023-07-31T02:08:33;6.28;;;5.68;;
20462;SDS011;10390;53.566;9.980;2023-07-31T02:10:59;6.82;;;6.10;;
20462;SDS011;10390;53.566;9.980;2023-07-31T02:13:25;7.20;;;6.45;;
20462;SDS011;10390;53.566;9.980;2023-07-31T02:15:50;7.20;;;5.70;;
20462;SDS011;10390;53.566;9.980;2023-07-31T02:18:16;7.35;;;6.38;;
20462;SDS011;10390;53.566;9.980;2023-07-31T02:20:42;6.88;;;5.90;;
20462;SDS011;10390;53.566;9.980;2023-07-31T02:23:08;6.78;;;6.10;;
20462;SDS011;10390;53.566;9.980;2023-07-31T02:25:34;6.53;;;5.82;;
20462;SDS011;10390;53.566;9.980;2023-07-31T02:27:59;6.57;;;5.57;;
20462;SDS011;10390;53.566;9.980;2023-07-31T02:30:25;7.15;;;6.10;;
20462;SDS011;10390;53.566;9.980;2023-07-31T02:32:50;6.20;;;5.60;;
20462;SDS011;10390;53.566;9.980;2023-07-31T02:35:16;6.60;;;5.97;;
20462;SDS011;10390;53.566;9.980;2023-07-31T02:37:43;6.80;;;6.03;;
20462;SDS011;10390;53.566;9.980;2023-07-31T02:40:09;6.50;;;5.90;;
20462;SDS011;10390;53.566;9.980;2023-07-31T02:42:35;6.47;;;5.78;;
20462;SDS011;10390;53.566;9.980;2023-07-31T02:45:00;6.60;;;5.68;;
20462;SDS011;10390;53.566;9.980;2023-07-31T02:47:26;6.80;;;6.20;;
20462;SDS011;10390;53.566;9.980;2023-07-31T02:49:52;6.65;;;6.05;;
20462;SDS011;10390;53.566;9.980;2023-07-31T02:52:17;6.28;;;5.50;;
20462;SDS011;10390;53.566;9.980;2023-07-31T02:54:43;5.88;;;5.07;;
20462;SDS011;10390;53.566;9.980;2023-07-31T02:57:08;5.75;;;5.00;;
20462;SDS011;10390;53.566;9.980;2023-07-31T02:59:34;6.38;;;5.78;;
20462;SDS011;10390;53.566;9.980;2023-07-31T03:01:59;6.60;;;5.75;;
20462;SDS011;10390;53.566;9.980;2023-07-31T03:04:25;6.65;;;5.85;;
20462;SDS011;10390;53.566;9.980;2023-07-31T03:06:51;5.95;;;5.35;;
20462;SDS011;10390;53.566;9.980;2023-07-31T03:09:16;8.25;;;6.00;;
20462;SDS011;10390;53.566;9.980;2023-07-31T03:11:42;6.40;;;5.78;;
20462;SDS011;10390;53.566;9.980;2023-07-31T03:14:07;6.60;;;5.43;;
20462;SDS011;10390;53.566;9.980;2023-07-31T03:16:33;6.50;;;5.90;;
20462;SDS011;10390;53.566;9.980;2023-07-31T03:18:59;5.80;;;5.20;;
20462;SDS011;10390;53.566;9.980;2023-07-31T03:21:24;5.93;;;5.13;;
20462;SDS011;10390;53.566;9.980;2023-07-31T03:23:50;5.90;;;5.30;;
20462;SDS011;10390;53.566;9.980;2023-07-31T03:26:15;6.13;;;5.53;;
20462;SDS011;10390;53.566;9.980;2023-07-31T03:28:41;5.82;;;5.15;;
20462;SDS011;10390;53.566;9.980;2023-07-31T03:31:06;5.63;;;5.00;;
20462;SDS011;10390;53.566;9.980;2023-07-31T03:33:33;6.53;;;5.50;;
20462;SDS011;10390;53.566;9.980;2023-07-31T03:35:58;6.38;;;5.60;;
20462;SDS011;10390;53.566;9.980;2023-07-31T03:38:24;6.82;;;5.90;;
20462;SDS011;10390;53.566;9.980;2023-07-31T03:40:50;6.13;;;5.18;;
20462;SDS011;10390;53.566;9.980;2023-07-31T03:43:15;6.38;;;5.72;;
20462;SDS011;10390;53.566;9.980;2023-07-31T03:45:41;5.97;;;5.38;;
20462;SDS011;10390;53.566;9.980;2023-07-31T03:48:07;5.75;;;5.15;;
20462;SDS011;10390;53.566;9.980;2023-07-31T03:50:33;5.25;;;4.55;;
20462;SDS011;10390;53.566;9.980;2023-07-31T03:52:59;5.88;;;5.28;;
20462;SDS011;10390;53.566;9.980;2023-07-31T03:55:24;5.78;;;5.18;;
20462;SDS011;10390;53.566;9.980;2023-07-31T03:57:50;6.38;;;5.78;;
20462;SDS011;10390;53.566;9.980;2023-07-31T04:00:15;6.07;;;5.47;;
20462;SDS011;10390;53.566;9.980;2023-07-31T04:02:41;6.40;;;5.15;;
20462;SDS011;10390;53.566;9.980;2023-07-31T04:05:07;6.22;;;5.60;;
20462;SDS011;10390;53.566;9.980;2023-07-31T04:07:32;5.72;;;5.07;;
20462;SDS011;10390;53.566;9.980;2023-07-31T04:09:59;5.55;;;4.80;;
20462;SDS011;10390;53.566;9.980;2023-07-31T04:12:25;5.78;;;5.15;;
20462;SDS011;10390;53.566;9.980;2023-07-31T04:14:50;6.72;;;5.32;;
20462;SDS011;10390;53.566;9.980;2023-07-31T04:17:17;5.25;;;4.70;;
20462;SDS011;10390;53.566;9.980;2023-07-31T04:19:43;5.72;;;5.13;;
20462;SDS011;10390;53.566;9.980;2023-07-31T04:22:08;5.30;;;4.78;;
20462;SDS011;10390;53.566;9.980;2023-07-31T04:24:34;5.18;;;4.68;;
20462;SDS011;10390;53.566;9.980;2023-07-31T04:27:00;5.85;;;5.25;;
20462;SDS011;10390;53.566;9.980;2023-07-31T04:29:25;6.03;;;5.10;;
20462;SDS011;10390;53.566;9.980;2023-07-31T04:31:51;7.22;;;5.82;;
20462;SDS011;10390;53.566;9.980;2023-07-31T04:34:16;5.65;;;5.10;;
20462;SDS011;10390;53.566;9.980;2023-07-31T04:36:42;5.55;;;5.05;;
20462;SDS011;10390;53.566;9.980;2023-07-31T04:39:07;5.47;;;4.88;;
20462;SDS011;10390;53.566;9.980;2023-07-31T04:41:33;6.07;;;5.50;;
20462;SDS011;10390;53.566;9.980;2023-07-31T04:43:58;5.25;;;4.63;;
20462;SDS011;10390;53.566;9.980;2023-07-31T04:46:24;6.13;;;5.53;;
20462;SDS011;10390;53.566;9.980;2023-07-31T04:48:50;5.50;;;4.75;;
20462;SDS011;10390;53.566;9.980;2023-07-31T04:51:15;6.18;;;5.57;;
20462;SDS011;10390;53.566;9.980;2023-07-31T04:53:41;5.95;;;5.35;;
20462;SDS011;10390;53.566;9.980;2023-07-31T04:56:06;5.50;;;4.93;;
20462;SDS011;10390;53.566;9.980;2023-07-31T04:58:32;5.43;;;4.93;;
20462;SDS011;10390;53.566;9.980;2023-07-31T05:00:58;5.90;;;5.30;;
20462;SDS011;10390;53.566;9.980;2023-07-31T05:03:23;5.43;;;4.75;;
20462;SDS011;10390;53.566;9.980;2023-07-31T05:05:49;5.45;;;4.95;;
20462;SDS011;10390;53.566;9.980;2023-07-31T05:08:15;5.63;;;5.13;;
20462;SDS011;10390;53.566;9.980;2023-07-31T05:10:42;5.65;;;4.90;;
20462;SDS011;10390;53.566;9.980;2023-07-31T05:13:08;5.70;;;4.95;;
20462;SDS011;10390;53.566;9.980;2023-07-31T05:15:34;6.30;;;5.70;;
20462;SDS011;10390;53.566;9.980;2023-07-31T05:17:59;6.68;;;6.07;;
20462;SDS011;10390;53.566;9.980;2023-07-31T05:20:25;6.38;;;5.78;;
20462;SDS011;10390;53.566;9.980;2023-07-31T05:22:50;6.10;;;5.50;;
20462;SDS011;10390;53.566;9.980;2023-07-31T05:25:16;5.53;;;5.00;;
20462;SDS011;10390;53.566;9.980;2023-07-31T05:27:42;5.47;;;4.97;;
20462;SDS011;10390;53.566;9.980;2023-07-31T05:30:07;5.95;;;5.35;;
20462;SDS011;10390;53.566;9.980;2023-07-31T05:32:33;5.03;;;4.50;;
20462;SDS011;10390;53.566;9.980;2023-07-31T05:34:59;5.07;;;4.57;;
20462;SDS011;10390;53.566;9.980;2023-07-31T05:37:24;5.80;;;5.20;;
20462;SDS011;10390;53.566;9.980;2023-07-31T05:39:50;5.80;;;5.20;;
20462;SDS011;10390;53.566;9.980;2023-07-31T05:42:17;6.05;;;5.43;;
20462;SDS011;10390;53.566;9.980;2023-07-31T05:44:42;5.50;;;5.00;;
20462;SDS011;10390;53.566;9.980;2023-07-31T05:47:08;5.78;;;5.10;;
20462;SDS011;10390;53.566;9.980;2023-07-31T05:49:34;5.70;;;5.20;;
20462;SDS011;10390;53.566;9.980;2023-07-31T05:52:00;5.60;;;5.00;;
20462;SDS011;10390;53.566;9.980;2023-07-31T05:54:25;5.35;;;4.72;;
20462;SDS011;10390;53.566;9.980;2023-07-31T05:56:51;5.15;;;4.65;;
20462;SDS011;10390;53.566;9.980;2023-07-31T05:59:16;5.75;;;5.20;;
20462;SDS011;10390;53.566;9.980;2023-07-31T06:01:42;5.32;;;4.60;;
20462;SDS011;10390;53.566;9.980;2023-07-31T06:04:08;5.72;;;5.18;;
20462;SDS011;10390;53.566;9.980;2023-07-31T06:06:33;6.13;;;5.53;;
20462;SDS011;10390;53.566;9.980;2023-07-31T06:08:59;6.00;;;5.40;;
20462;SDS011;10390;53.566;9.980;2023-07-31T06:11:25;5.95;;;5.43;;
20462;SDS011;10390;53.566;9.980;2023-07-31T06:13:51;5.57;;;4.80;;
20462;SDS011;10390;53.566;9.980;2023-07-31T06:16:16;5.70;;;5.20;;
20462;SDS011;10390;53.566;9.980;2023-07-31T06:18:42;5.20;;;4.70;;
20462;SDS011;10390;53.566;9.980;2023-07-31T06:21:08;5.20;;;4.70;;
20462;SDS011;10390;53.566;9.980;2023-07-31T06:23:34;5.63;;;5.13;;
20462;SDS011;10390;53.566;9.980;2023-07-31T06:26:00;5.28;;;4.78;;
20462;SDS011;10390;53.566;9.980;2023-07-31T06:28:28;5.30;;;4.80;;
20462;SDS011;10390;53.566;9.980;2023-07-31T06:30:55;6.22;;;5.72;;
20462;SDS011;10390;53.566;9.980;2023-07-31T06:33:20;5.28;;;4.78;;
20462;SDS011;10390;53.566;9.980;2023-07-31T06:35:46;5.65;;;5.10;;
20462;SDS011;10390;53.566;9.980;2023-07-31T06:38:11;5.30;;;4.80;;
20462;SDS011;10390;53.566;9.980;2023-07-31T06:40:37;5.65;;;5.15;;
20462;SDS011;10390;53.566;9.980;2023-07-31T06:43:03;5.32;;;4.82;;
20462;SDS011;10390;53.566;9.980;2023-07-31T06:45:33;5.57;;;5.07;;
20462;SDS011;10390;53.566;9.980;2023-07-31T06:48:00;6.13;;;5.63;;
20462;SDS011;10390;53.566;9.980;2023-07-31T06:50:26;5.55;;;5.05;;
20462;SDS011;10390;53.566;9.980;2023-07-31T06:52:55;5.07;;;4.57;;
20462;SDS011;10390;53.566;9.980;2023-07-31T06:55:22;6.00;;;5.40;;
20462;SDS011;10390;53.566;9.980;2023-07-31T06:57:48;5.85;;;5.35;;
20462;SDS011;10390;53.566;9.980;2023-07-31T07:00:15;5.60;;;5.10;;
20462;SDS011;10390;53.566;9.980;2023-07-31T07:02:41;5.97;;;5.40;;
20462;SDS011;10390;53.566;9.980;2023-07-31T07:05:07;5.50;;;5.00;;
20462;SDS011;10390;53.566;9.980;2023-07-31T07:07:33;5.50;;;5.00;;
20462;SDS011;10390;53.566;9.980;2023-07-31T07:09:59;6.47;;;5.88;;
20462;SDS011;10390;53.566;9.980;2023-07-31T07:12:25;6.40;;;5.80;;
20462;SDS011;10390;53.566;9.980;2023-07-31T07:14:51;5.88;;;5.38;;
20462;SDS011;10390;53.566;9.980;2023-07-31T07:17:18;6.10;;;5.60;;
20462;SDS011;10390;53.566;9.980;2023-07-31T07:19:44;5.90;;;5.30;;
20462;SDS011;10390;53.566;9.980;2023-07-31T07:22:10;6.38;;;5.80;;
20462;SDS011;10390;53.566;9.980;2023-07-31T07:24:36;6.07;;;5.57;;
20462;SDS011;10390;53.566;9.980;2023-07-31T07:27:02;6.20;;;5.70;;
20462;SDS011;10390;53.566;9.980;2023-07-31T07:29:28;6.80;;;6.30;;
20462;SDS011;10390;53.566;9.980;2023-07-31T07:31:54;6.60;;;6.00;;
20462;SDS011;10390;53.566;9.980;2023-07-31T07:34:22;6.05;;;5.55;;
20462;SDS011;10390;53.566;9.980;2023-07-31T07:36:49;5.90;;;5.40;;
20462;SDS011;10390;53.566;9.980;2023-07-31T07:39:14;6.10;;;5.60;;
20462;SDS011;10390;53.566;9.980;2023-07-31T07:41:40;5.88;;;5.38;;
20462;SDS011;10390;53.566;9.980;2023-07-31T07:44:06;5.93;;;5.32;;
20462;SDS011;10390;53.566;9.980;2023-07-31T07:46:32;6.35;;;5.85;;
20462;SDS011;10390;53.566;9.980;2023-07-31T07:48:58;6.13;;;5.63;;
20462;SDS011;10390;53.566;9.980;2023-07-31T07:51:23;5.93;;;5.43;;
20462;SDS011;10390;53.566;9.980;2023-07-31T07:53:49;6.53;;;5.93;;
20462;SDS011;10390;53.566;9.980;2023-07-31T07:56:14;6.18;;;5.68;;
20462;SDS011;10390;53.566;9.980;2023-07-31T07:58:40;6.72;;;6.13;;
20462;SDS011;10390;53.566;9.980;2023-07-31T08:01:05;5.85;;;5.35;;
20462;SDS011;10390;53.566;9.980;2023-07-31T08:03:31;5.65;;;5.15;;
20462;SDS011;10390;53.566;9.980;2023-07-31T08:06:00;6.18;;;5.57;;
20462;SDS011;10390;53.566;9.980;2023-07-31T08:08:27;5.40;;;4.90;;
20462;SDS011;10390;53.566;9.980;2023-07-31T08:10:53;6.60;;;6.10;;
20462;SDS011;10390;53.566;9.980;2023-07-31T08:13:18;6.20;;;5.70;;
20462;SDS011;10390;53.566;9.980;2023-07-31T08:15:44;6.25;;;5.75;;
20462;SDS011;10390;53.566;9.980;2023-07-31T08:18:10;6.10;;;5.60;;
20462;SDS011;10390;53.566;9.980;2023-07-31T08:20:38;6.10;;;5.60;;
20462;SDS011;10390;53.566;9.980;2023-07-31T08:23:04;6.22;;;5.65;;
20462;SDS011;10390;53.566;9.980;2023-07-31T08:25:29;6.43;;;5.93;;
20462;SDS011;10390;53.566;9.980;2023-07-31T08:27:55;6.60;;;6.00;;
20462;SDS011;10390;53.566;9.980;2023-07-31T08:30:21;6.68;;;6.15;;
20462;SDS011;10390;53.566;9.980;2023-07-31T08:32:46;6.13;;;5.50;;
20462;SDS011;10390;53.566;9.980;2023-07-31T08:35:12;6.70;;;6.10;;
20462;SDS011;10390;53.566;9.980;2023-07-31T08:37:38;5.90;;;5.40;;
20462;SDS011;10390;53.566;9.980;2023-07-31T08:40:04;5.65;;;5.15;;
20462;SDS011;10390;53.566;9.980;2023-07-31T08:42:30;5.97;;;5.47;;
20462;SDS011;10390;53.566;9.980;2023-07-31T08:44:56;6.47;;;5.88;;
20462;SDS011;10390;53.566;9.980;2023-07-31T08:47:25;6.80;;;6.25;;
20462;SDS011;10390;53.566;9.980;2023-07-31T08:49:51;6.80;;;6.20;;
20462;SDS011;10390;53.566;9.980;2023-07-31T08:52:17;6.25;;;5.75;;
20462;SDS011;10390;53.566;9.980;2023-07-31T08:54:43;5.70;;;5.20;;
20462;SDS011;10390;53.566;9.980;2023-07-31T08:57:08;5.93;;;5.43;;
20462;SDS011;10390;53.566;9.980;2023-07-31T08:59:36;6.43;;;5.93;;
20462;SDS011;10390;53.566;9.980;2023-07-31T09:02:06;6.35;;;5.75;;
20462;SDS011;10390;53.566;9.980;2023-07-31T09:04:33;6.30;;;5.80;;
20462;SDS011;10390;53.566;9.980;2023-07-31T09:07:00;5.95;;;5.45;;
20462;SDS011;10390;53.566;9.980;2023-07-31T09:09:28;6.38;;;5.82;;
20462;SDS011;10390;53.566;9.980;2023-07-31T09:11:54;6.13;;;5.63;;
20462;SDS011;10390;53.566;9.980;2023-07-31T09:14:20;6.03;;;5.53;;
20462;SDS011;10390;53.566;9.980;2023-07-31T09:16:54;6.57;;;5.97;;
20462;SDS011;10390;53.566;9.980;2023-07-31T09:19:24;6.57;;;6.07;;
20462;SDS011;10390;53.566;9.980;2023-07-31T09:21:51;6.60;;;6.10;;
20462;SDS011;10390;53.566;9.980;2023-07-31T09:24:27;6.43;;;5.93;;
20462;SDS011;10390;53.566;9.980;2023-07-31T09:26:58;7.00;;;6.40;;
20462;SDS011;10390;53.566;9.980;2023-07-31T09:29:26;6.05;;;5.55;;
20462;SDS011;10390;53.566;9.980;2023-07-31T09:31:53;6.35;;;5.85;;
20462;SDS011;10390;53.566;9.980;2023-07-31T09:34:20;6.18;;;5.57;;
20462;SDS011;10390;53.566;9.980;2023-07-31T09:36:53;6.25;;;5.75;;
20462;SDS011;10390;53.566;9.980;2023-07-31T09:39:19;5.82;;;5.32;;
20462;SDS011;10390;53.566;9.980;2023-07-31T09:41:53;6.18;;;5.68;;
20462;SDS011;10390;53.566;9.980;2023-07-31T09:44:19;5.88;;;5.38;;
20462;SDS011;10390;53.566;9.980;2023-07-31T09:46:46;6.22;;;5.72;;
20462;SDS011;10390;53.566;9.980;2023-07-31T09:49:12;5.80;;;5.30;;
20462;SDS011;10390;53.566;9.980;2023-07-31T09:51:40;6.03;;;5.53;;
20462;SDS011;10390;53.566;9.980;2023-07-31T09:56:45;5.28;;;4.78;;
20462;SDS011;10390;53.566;9.980;2023-07-31T09:59:13;5.50;;;5.00;;
20462;SDS011;10390;53.566;9.980;2023-07-31T10:01:47;5.28;;;4.78;;
20462;SDS011;10390;53.566;9.980;2023-07-31T10:04:14;5.30;;;4.80;;
20462;SDS011;10390;53.566;9.980;2023-07-31T10:06:44;5.70;;;5.20;;
20462;SDS011;10390;53.566;9.980;2023-07-31T10:09:12;5.65;;;5.15;;
20462;SDS011;10390;53.566;9.980;2023-07-31T10:11:42;5.47;;;4.97;;
20462;SDS011;10390;53.566;9.980;2023-07-31T10:14:15;5.60;;;5.10;;
20462;SDS011;10390;53.566;9.980;2023-07-31T10:16:45;5.97;;;5.47;;
20462;SDS011;10390;53.566;9.980;2023-07-31T10:19:10;6.85;;;6.25;;
20462;SDS011;10390;53.566;9.980;2023-07-31T10:21:36;6.18;;;5.68;;
20462;SDS011;10390;53.566;9.980;2023-07-31T10:24:03;5.70;;;5.20;;
20462;SDS011;10390;53.566;9.980;2023-07-31T10:26:29;6.07;;;5.57;;
20462;SDS011;10390;53.566;9.980;2023-07-31T10:28:56;5.50;;;5.00;;
20462;SDS011;10390;53.566;9.980;2023-07-31T10:31:23;5.85;;;5.00;;
20462;SDS011;10390;53.566;9.980;2023-07-31T10:33:50;6.18;;;5.68;;
20462;SDS011;10390;53.566;9.980;2023-07-31T10:36:17;5.35;;;4.85;;
20462;SDS011;10390;53.566;9.980;2023-07-31T10:38:44;5.22;;;4.72;;
20462;SDS011;10390;53.566;9.980;2023-07-31T10:41:11;5.97;;;5.47;;
20462;SDS011;10390;53.566;9.980;2023-07-31T10:43:37;5.70;;;5.20;;
20462;SDS011;10390;53.566;9.980;2023-07-31T10:46:06;6.13;;;4.85;;
20462;SDS011;10390;53.566;9.980;2023-07-31T10:48:33;6.18;;;5.68;;
20462;SDS011;10390;53.566;9.980;2023-07-31T10:50:59;5.90;;;5.40;;
20462;SDS011;10390;53.566;9.980;2023-07-31T10:53:26;6.35;;;5.85;;
20462;SDS011;10390;53.566;9.980;2023-07-31T10:55:57;5.68;;;5.18;;
20462;SDS011;10390;53.566;9.980;2023-07-31T10:58:24;6.82;;;6.10;;
20462;SDS011;10390;53.566;9.980;2023-07-31T11:00:51;6.95;;;6.35;;
20462;SDS011;10390;53.566;9.980;2023-07-31T11:03:24;7.38;;;6.78;;
20462;SDS011;10390;53.566;9.980;2023-07-31T11:05:52;6.35;;;5.85;;
20462;SDS011;10390;53.566;9.980;2023-07-31T11:16:17;6.00;;;5.50;;
20462;SDS011;10390;53.566;9.980;2023-07-31T11:18:45;5.90;;;5.40;;
20462;SDS011;10390;53.566;9.980;2023-07-31T11:21:16;5.90;;;5.40;;
20462;SDS011;10390;53.566;9.980;2023-07-31T11:23:47;6.53;;;6.00;;
20462;SDS011;10390;53.566;9.980;2023-07-31T11:26:17;5.90;;;5.40;;
20462;SDS011;10390;53.566;9.980;2023-07-31T11:28:46;5.85;;;5.35;;
20462;SDS011;10390;53.566;9.980;2023-07-31T11:31:12;6.22;;;5.72;;
20462;SDS011;10390;53.566;9.980;2023-07-31T11:33:38;6.47;;;5.97;;
20462;SDS011;10390;53.566;9.980;2023-07-31T11:36:03;6.75;;;6.18;;
20462;SDS011;10390;53.566;9.980;2023-07-31T11:38:30;6.38;;;5.88;;
20462;SDS011;10390;53.566;9.980;2023-07-31T11:40:59;5.75;;;5.25;;
20462;SDS011;10390;53.566;9.980;2023-07-31T11:43:29;6.15;;;5.65;;
20462;SDS011;10390;53.566;9.980;2023-07-31T11:45:56;6.43;;;5.93;;
20462;SDS011;10390;53.566;9.980;2023-07-31T11:50:51;6.30;;;5.80;;
20462;SDS011;10390;53.566;9.980;2023-07-31T11:53:28;5.82;;;5.32;;
20462;SDS011;10390;53.566;9.980;2023-07-31T11:56:01;6.38;;;5.88;;
20462;SDS011;10390;53.566;9.980;2023-07-31T11:58:30;6.43;;;5.93;;
20462;SDS011;10390;53.566;9.980;2023-07-31T12:00:56;6.05;;;5.55;;
20462;SDS011;10390;53.566;9.980;2023-07-31T12:03:23;5.45;;;4.95;;
20462;SDS011;10390;53.566;9.980;2023-07-31T12:05:50;6.20;;;5.60;;
20462;SDS011;10390;53.566;9.980;2023-07-31T12:08:16;6.35;;;5.75;;
20462;SDS011;10390;53.566;9.980;2023-07-31T12:10:41;6.05;;;5.55;;
20462;SDS011;10390;53.566;9.980;2023-07-31T12:13:08;6.88;;;6.28;;
20462;SDS011;10390;53.566;9.980;2023-07-31T12:15:44;6.60;;;6.00;;
20462;SDS011;10390;53.566;9.980;2023-07-31T12:18:11;6.68;;;6.07;;
20462;SDS011;10390;53.566;9.980;2023-07-31T12:20:47;6.43;;;5.93;;
20462;SDS011;10390;53.566;9.980;2023-07-31T12:23:17;6.28;;;5.78;;
20462;SDS011;10390;53.566;9.980;2023-07-31T12:28:36;7.00;;;6.40;;
20462;SDS011;10390;53.566;9.980;2023-07-31T12:31:05;6.38;;;5.78;;
20462;SDS011;10390;53.566;9.980;2023-07-31T12:33:32;5.50;;;5.00;;
20462;SDS011;10390;53.566;9.980;2023-07-31T12:36:00;6.53;;;5.93;;
20462;SDS011;10390;53.566;9.980;2023-07-31T12:38:27;6.07;;;5.57;;
20462;SDS011;10390;53.566;9.980;2023-07-31T12:40:53;6.60;;;6.00;;
20462;SDS011;10390;53.566;9.980;2023-07-31T12:43:19;6.38;;;5.82;;
20462;SDS011;10390;53.566;9.980;2023-07-31T12:45:44;6.18;;;5.68;;
20462;SDS011;10390;53.566;9.980;2023-07-31T12:48:10;5.95;;;5.45;;
20462;SDS011;10390;53.566;9.980;2023-07-31T12:50:36;6.68;;;6.07;;
20462;SDS011;10390;53.566;9.980;2023-07-31T12:53:02;6.57;;;5.97;;
20462;SDS011;10390;53.566;9.980;2023-07-31T12:55:30;7.25;;;6.65;;
20462;SDS011;10390;53.566;9.980;2023-07-31T12:57:59;7.05;;;6.45;;
20462;SDS011;10390;53.566;9.980;2023-07-31T13:00:25;6.35;;;5.85;;
20462;SDS011;10390;53.566;9.980;2023-07-31T13:02:51;6.78;;;6.18;;
20462;SDS011;10390;53.566;9.980;2023-07-31T13:05:17;6.97;;;6.38;;
20462;SDS011;10390;53.566;9.980;2023-07-31T13:07:44;6.97;;;6.38;;
20462;SDS011;10390;53.566;9.980;2023-07-31T13:10:10;7.30;;;6.70;;
20462;SDS011;10390;53.566;9.980;2023-07-31T13:12:35;6.90;;;6.30;;
20462;SDS011;10390;53.566;9.980;2023-07-31T13:15:01;6.97;;;6.38;;
20462;SDS011;10390;53.566;9.980;2023-07-31T13:17:27;6.80;;;6.20;;
20462;SDS011;10390;53.566;9.980;2023-07-31T13:19:52;7.00;;;6.40;;
20462;SDS011;10390;53.566;9.980;2023-07-31T13:22:18;6.57;;;6.00;;
20462;SDS011;10390;53.566;9.980;2023-07-31T13:24:44;6.20;;;5.70;;
20462;SDS011;10390;53.566;9.980;2023-07-31T13:27:09;6.70;;;6.20;;
20462;SDS011;10390;53.566;9.980;2023-07-31T13:29:35;6.93;;;6.32;;
20462;SDS011;10390;53.566;9.980;2023-07-31T13:32:00;6.70;;;6.20;;
20462;SDS011;10390;53.566;9.980;2023-07-31T13:34:26;6.60;;;6.10;;
20462;SDS011;10390;53.566;9.980;2023-07-31T13:36:53;6.07;;;5.57;;
20462;SDS011;10390;53.566;9.980;2023-07-31T13:39:20;6.50;;;5.97;;
20462;SDS011;10390;53.566;9.980;2023-07-31T13:41:46;6.65;;;6.05;;
20462;SDS011;10390;53.566;9.980;2023-07-31T13:44:12;6.88;;;6.28;;
20462;SDS011;10390;53.566;9.980;2023-07-31T13:46:37;6.53;;;6.03;;
20462;SDS011;10390;53.566;9.980;2023-07-31T13:49:03;6.22;;;5.72;;
20462;SDS011;10390;53.566;9.980;2023-07-31T13:51:29;6.63;;;6.03;;
20462;SDS011;10390;53.566;9.980;2023-07-31T13:53:54;6.78;;;6.18;;
20462;SDS011;10390;53.566;9.980;2023-07-31T13:56:20;7.03;;;6.43;;
20462;SDS011;10390;53.566;9.980;2023-07-31T13:58:45;7.15;;;6.55;;
20462;SDS011;10390;53.566;9.980;2023-07-31T14:01:11;6.60;;;6.03;;
20462;SDS011;10390;53.566;9.980;2023-07-31T14:03:36;7.15;;;6.45;;
20462;SDS011;10390;53.566;9.980;2023-07-31T14:06:02;6.80;;;6.20;;
20462;SDS011;10390;53.566;9.980;2023-07-31T14:08:28;7.30;;;6.70;;
20462;SDS011;10390;53.566;9.980;2023-07-31T14:10:54;6.90;;;6.30;;
20462;SDS011;10390;53.566;9.980;2023-07-31T14:13:20;6.95;;;6.35;;
20462;SDS011;10390;53.566;9.980;2023-07-31T14:15:46;7.53;;;6.93;;
20462;SDS011;10390;53.566;9.980;2023-07-31T14:18:11;7.47;;;6.88;;
20462;SDS011;10390;53.566;9.980;2023-07-31T14:20:37;7.50;;;6.93;;
20462;SDS011;10390;53.566;9.980;2023-07-31T14:23:03;7.47;;;6.88;;
20462;SDS011;10390;53.566;9.980;2023-07-31T14:25:28;7.10;;;6.50;;
20462;SDS011;10390;53.566;9.980;2023-07-31T14:27:54;7.47;;;6.88;;
20462;SDS011;10390;53.566;9.980;2023-07-31T14:30:20;7.10;;;6.50;;
20462;SDS011;10390;53.566;9.980;2023-07-31T14:32:45;6.70;;;6.10;;
20462;SDS011;10390;53.566;9.980;2023-07-31T14:35:11;7.20;;;6.60;;
20462;SDS011;10390;53.566;9.980;2023-07-31T14:37:39;7.38;;;6.78;;
20462;SDS011;10390;53.566;9.980;2023-07-31T14:40:07;7.28;;;6.68;;
20462;SDS011;10390;53.566;9.980;2023-07-31T14:42:34;7.53;;;6.88;;
20462;SDS011;10390;53.566;9.980;2023-07-31T14:45:00;8.10;;;7.40;;
20462;SDS011;10390;53.566;9.980;2023-07-31T14:47:26;7.57;;;6.97;;
20462;SDS011;10390;53.566;9.980;2023-07-31T14:49:51;7.35;;;6.75;;
20462;SDS011;10390;53.566;9.980;2023-07-31T14:52:17;7.50;;;6.82;;
20462;SDS011;10390;53.566;9.980;2023-07-31T14:54:43;7.20;;;6.60;;
20462;SDS011;10390;53.566;9.980;2023-07-31T14:57:08;7.35;;;6.70;;
20462;SDS011;10390;53.566;9.980;2023-07-31T14:59:34;7.57;;;6.90;;
20462;SDS011;10390;53.566;9.980;2023-07-31T15:01:59;7.68;;;7.07;;
20462;SDS011;10390;53.566;9.980;2023-07-31T15:04:25;6.65;;;6.05;;
20462;SDS011;10390;53.566;9.980;2023-07-31T15:06:51;6.55;;;5.95;;
20462;SDS011;10390;53.566;9.980;2023-07-31T15:09:17;6.95;;;6.35;;